sensor_id;sensor_type;location;lat;lon;timestamp;pressure;altitude;pressure_sealevel;temperature
66372;BMP180;53168;51.146;17.120;2022-09-12T00:00:11;100190.80;;;14.86
66372;BMP180;53168;51.146;17.120;2022-09-12T00:03:06;100189.20;;;14.80
66372;BMP180;53168;51.146;17.120;2022-09-12T00:05:44;100189.20;;;14.80
66372;BMP180;53168;51.146;17.120;2022-09-12T00:08:17;100184.80;;;14.72
66372;BMP180;53168;51.146;17.120;2022-09-12T00:10:51;100186.40;;;14.78
66372;BMP180;53168;51.146;17.120;2022-09-12T00:13:24;100189.40;;;14.80
66372;BMP180;53168;51.146;17.120;2022-09-12T00:15:57;100189.60;;;14.80
66372;BMP180;53168;51.146;17.120;2022-09-12T00:18:31;100189.20;;;14.80
66372;BMP180;53168;51.146;17.120;2022-09-12T00:21:06;100189.80;;;14.80
66372;BMP180;53168;51.146;17.120;2022-09-12T00:23:39;100192.60;;;14.80
66372;BMP180;53168;51.146;17.120;2022-09-12T00:26:13;100188.40;;;14.80
66372;BMP180;53168;51.146;17.120;2022-09-12T00:28:48;100187.80;;;14.80
66372;BMP180;53168;51.146;17.120;2022-09-12T00:31:25;100188.00;;;14.90
66372;BMP180;53168;51.146;17.120;2022-09-12T00:34:00;100188.00;;;14.90
66372;BMP180;53168;51.146;17.120;2022-09-12T00:36:33;100188.80;;;14.90
66372;BMP180;53168;51.146;17.120;2022-09-12T00:39:07;100193.60;;;14.80
66372;BMP180;53168;51.146;17.120;2022-09-12T00:41:41;100195.20;;;14.80
66372;BMP180;53168;51.146;17.120;2022-09-12T00:44:58;100194.00;;;14.80
66372;BMP180;53168;51.146;17.120;2022-09-12T00:47:33;100194.40;;;14.82
66372;BMP180;53168;51.146;17.120;2022-09-12T00:50:12;100197.80;;;14.90
66372;BMP180;53168;51.146;17.120;2022-09-12T00:52:51;100200.40;;;14.80
66372;BMP180;53168;51.146;17.120;2022-09-12T00:55:30;100202.40;;;14.80
66372;BMP180;53168;51.146;17.120;2022-09-12T00:58:10;100207.60;;;14.80
66372;BMP180;53168;51.146;17.120;2022-09-12T01:00:46;100203.80;;;14.80
66372;BMP180;53168;51.146;17.120;2022-09-12T01:03:22;100202.40;;;14.80
66372;BMP180;53168;51.146;17.120;2022-09-12T01:06:04;100198.20;;;14.80
66372;BMP180;53168;51.146;17.120;2022-09-12T01:08:39;100196.40;;;14.80
66372;BMP180;53168;51.146;17.120;2022-09-12T01:11:12;100200.60;;;14.80
66372;BMP180;53168;51.146;17.120;2022-09-12T01:13:45;100196.40;;;14.70
66372;BMP180;53168;51.146;17.120;2022-09-12T01:16:17;100199.60;;;14.60
66372;BMP180;53168;51.146;17.120;2022-09-12T01:18:56;100203.40;;;14.50
66372;BMP180;53168;51.146;17.120;2022-09-12T01:21:37;100204.40;;;14.40
66372;BMP180;53168;51.146;17.120;2022-09-12T01:24:50;100209.00;;;14.40
66372;BMP180;53168;51.146;17.120;2022-09-12T01:30:44;100212.80;;;14.32
66372;BMP180;53168;51.146;17.120;2022-09-12T01:33:33;100212.60;;;14.30
66372;BMP180;53168;51.146;17.120;2022-09-12T01:36:17;100209.20;;;14.30
66372;BMP180;53168;51.146;17.120;2022-09-12T01:38:59;100208.40;;;14.30
66372;BMP180;53168;51.146;17.120;2022-09-12T01:41:41;100207.60;;;14.30
66372;BMP180;53168;51.146;17.120;2022-09-12T01:44:24;100205.60;;;14.20
66372;BMP180;53168;51.146;17.120;2022-09-12T01:47:05;100205.80;;;14.20
66372;BMP180;53168;51.146;17.120;2022-09-12T01:49:49;100206.80;;;14.10
66372;BMP180;53168;51.146;17.120;2022-09-12T01:52:26;100210.60;;;14.10
66372;BMP180;53168;51.146;17.120;2022-09-12T01:55:05;100210.60;;;14.10
66372;BMP180;53168;51.146;17.120;2022-09-12T01:57:42;100208.60;;;14.10
66372;BMP180;53168;51.146;17.120;2022-09-12T02:00:16;100214.20;;;14.10
66372;BMP180;53168;51.146;17.120;2022-09-12T02:02:51;100210.20;;;14.20
66372;BMP180;53168;51.146;17.120;2022-09-12T02:05:31;100209.60;;;14.20
66372;BMP180;53168;51.146;17.120;2022-09-12T02:08:08;100207.80;;;14.20
66372;BMP180;53168;51.146;17.120;2022-09-12T02:10:44;100217.20;;;14.20
66372;BMP180;53168;51.146;17.120;2022-09-12T02:13:21;100214.60;;;14.10
66372;BMP180;53168;51.146;17.120;2022-09-12T02:15:57;100210.60;;;14.10
66372;BMP180;53168;51.146;17.120;2022-09-12T02:18:33;100213.00;;;14.00
66372;BMP180;53168;51.146;17.120;2022-09-12T02:21:09;100208.80;;;14.00
66372;BMP180;53168;51.146;17.120;2022-09-12T02:23:44;100210.20;;;14.00
66372;BMP180;53168;51.146;17.120;2022-09-12T02:26:22;100207.20;;;14.00
66372;BMP180;53168;51.146;17.120;2022-09-12T02:28:55;100210.40;;;13.92
66372;BMP180;53168;51.146;17.120;2022-09-12T02:31:32;100208.60;;;13.90
66372;BMP180;53168;51.146;17.120;2022-09-12T02:34:14;100208.80;;;13.80
66372;BMP180;53168;51.146;17.120;2022-09-12T02:36:54;100206.00;;;13.80
66372;BMP180;53168;51.146;17.120;2022-09-12T02:39:30;100209.40;;;13.90
66372;BMP180;53168;51.146;17.120;2022-09-12T02:42:04;100208.40;;;13.90
66372;BMP180;53168;51.146;17.120;2022-09-12T02:44:37;100206.00;;;13.90
66372;BMP180;53168;51.146;17.120;2022-09-12T02:47:11;100213.20;;;13.90
66372;BMP180;53168;51.146;17.120;2022-09-12T02:49:46;100217.80;;;13.90
66372;BMP180;53168;51.146;17.120;2022-09-12T02:52:18;100216.60;;;13.90
66372;BMP180;53168;51.146;17.120;2022-09-12T02:54:51;100216.60;;;13.80
66372;BMP180;53168;51.146;17.120;2022-09-12T02:57:24;100215.00;;;13.80
66372;BMP180;53168;51.146;17.120;2022-09-12T03:00:00;100220.80;;;13.82
66372;BMP180;53168;51.146;17.120;2022-09-12T03:02:44;100220.80;;;13.90
66372;BMP180;53168;51.146;17.120;2022-09-12T03:05:27;100224.00;;;13.90
66372;BMP180;53168;51.146;17.120;2022-09-12T03:08:22;100223.60;;;13.98
66372;BMP180;53168;51.146;17.120;2022-09-12T03:11:11;100225.20;;;14.00
66372;BMP180;53168;51.146;17.120;2022-09-12T03:13:55;100226.00;;;14.02
66372;BMP180;53168;51.146;17.120;2022-09-12T03:16:37;100226.00;;;14.00
66372;BMP180;53168;51.146;17.120;2022-09-12T03:19:19;100221.80;;;14.00
66372;BMP180;53168;51.146;17.120;2022-09-12T03:22:01;100221.00;;;13.96
66372;BMP180;53168;51.146;17.120;2022-09-12T03:24:36;100219.20;;;13.90
66372;BMP180;53168;51.146;17.120;2022-09-12T03:27:11;100214.00;;;13.90
66372;BMP180;53168;51.146;17.120;2022-09-12T03:29:45;100208.60;;;13.90
66372;BMP180;53168;51.146;17.120;2022-09-12T03:32:18;100204.80;;;13.90
66372;BMP180;53168;51.146;17.120;2022-09-12T03:34:50;100200.20;;;13.90
66372;BMP180;53168;51.146;17.120;2022-09-12T03:37:22;100198.80;;;13.90
66372;BMP180;53168;51.146;17.120;2022-09-12T03:39:54;100204.20;;;13.90
66372;BMP180;53168;51.146;17.120;2022-09-12T03:42:28;100205.00;;;13.90
66372;BMP180;53168;51.146;17.120;2022-09-12T03:45:00;100204.20;;;13.90
66372;BMP180;53168;51.146;17.120;2022-09-12T03:47:32;100209.60;;;13.90
66372;BMP180;53168;51.146;17.120;2022-09-12T03:50:06;100208.40;;;13.90
66372;BMP180;53168;51.146;17.120;2022-09-12T03:52:37;100206.00;;;13.88
66372;BMP180;53168;51.146;17.120;2022-09-12T03:55:09;100209.20;;;13.80
66372;BMP180;53168;51.146;17.120;2022-09-12T03:57:42;100214.40;;;13.76
66372;BMP180;53168;51.146;17.120;2022-09-12T04:00:14;100219.20;;;13.72
66372;BMP180;53168;51.146;17.120;2022-09-12T04:02:54;100213.60;;;13.70
66372;BMP180;53168;51.146;17.120;2022-09-12T04:05:26;100221.80;;;13.78
66372;BMP180;53168;51.146;17.120;2022-09-12T04:07:58;100221.20;;;13.80
66372;BMP180;53168;51.146;17.120;2022-09-12T04:10:31;100222.40;;;13.80
66372;BMP180;53168;51.146;17.120;2022-09-12T04:13:03;100228.60;;;13.78
66372;BMP180;53168;51.146;17.120;2022-09-12T04:15:35;100229.00;;;13.70
66372;BMP180;53168;51.146;17.120;2022-09-12T04:18:07;100229.00;;;13.70
66372;BMP180;53168;51.146;17.120;2022-09-12T04:20:38;100225.00;;;13.70
66372;BMP180;53168;51.146;17.120;2022-09-12T04:23:10;100227.00;;;13.70
66372;BMP180;53168;51.146;17.120;2022-09-12T04:25:43;100224.40;;;13.70
66372;BMP180;53168;51.146;17.120;2022-09-12T04:28:15;100228.40;;;13.72
66372;BMP180;53168;51.146;17.120;2022-09-12T04:30:47;100224.20;;;13.80
66372;BMP180;53168;51.146;17.120;2022-09-12T04:33:19;100228.60;;;13.80
66372;BMP180;53168;51.146;17.120;2022-09-12T04:35:51;100224.20;;;13.84
66372;BMP180;53168;51.146;17.120;2022-09-12T04:38:23;100230.40;;;13.90
66372;BMP180;53168;51.146;17.120;2022-09-12T04:40:54;100227.80;;;13.96
66372;BMP180;53168;51.146;17.120;2022-09-12T04:43:26;100224.20;;;14.00
66372;BMP180;53168;51.146;17.120;2022-09-12T04:46:05;100223.00;;;14.00
66372;BMP180;53168;51.146;17.120;2022-09-12T04:48:37;100222.60;;;14.00
66372;BMP180;53168;51.146;17.120;2022-09-12T04:51:12;100226.20;;;14.00
66372;BMP180;53168;51.146;17.120;2022-09-12T04:53:49;100230.60;;;13.98
66372;BMP180;53168;51.146;17.120;2022-09-12T04:56:22;100229.80;;;14.06
66372;BMP180;53168;51.146;17.120;2022-09-12T04:58:55;100231.40;;;14.10
66372;BMP180;53168;51.146;17.120;2022-09-12T05:01:28;100233.40;;;14.10
66372;BMP180;53168;51.146;17.120;2022-09-12T05:04:01;100237.20;;;14.20
66372;BMP180;53168;51.146;17.120;2022-09-12T05:06:37;100234.20;;;14.20
66372;BMP180;53168;51.146;17.120;2022-09-12T05:09:11;100237.20;;;14.20
66372;BMP180;53168;51.146;17.120;2022-09-12T05:11:44;100238.60;;;14.20
66372;BMP180;53168;51.146;17.120;2022-09-12T05:14:36;100244.00;;;14.30
66372;BMP180;53168;51.146;17.120;2022-09-12T05:17:08;100248.80;;;14.40
66372;BMP180;53168;51.146;17.120;2022-09-12T05:19:40;100251.80;;;14.46
66372;BMP180;53168;51.146;17.120;2022-09-12T05:22:11;100249.80;;;14.50
66372;BMP180;53168;51.146;17.120;2022-09-12T05:24:43;100253.80;;;14.60
66372;BMP180;53168;51.146;17.120;2022-09-12T05:27:20;100259.80;;;14.60
66372;BMP180;53168;51.146;17.120;2022-09-12T05:29:51;100260.60;;;14.62
66372;BMP180;53168;51.146;17.120;2022-09-12T05:32:23;100261.80;;;14.70
66372;BMP180;53168;51.146;17.120;2022-09-12T05:34:56;100263.80;;;14.70
66372;BMP180;53168;51.146;17.120;2022-09-12T05:37:27;100259.80;;;14.80
66372;BMP180;53168;51.146;17.120;2022-09-12T05:39:59;100263.80;;;14.90
66372;BMP180;53168;51.146;17.120;2022-09-12T05:42:34;100261.60;;;14.98
66372;BMP180;53168;51.146;17.120;2022-09-12T05:45:08;100267.60;;;15.00
66372;BMP180;53168;51.146;17.120;2022-09-12T05:47:40;100275.60;;;15.10
66372;BMP180;53168;51.146;17.120;2022-09-12T05:50:13;100277.00;;;15.10
66372;BMP180;53168;51.146;17.120;2022-09-12T05:52:45;100277.60;;;15.12
66372;BMP180;53168;51.146;17.120;2022-09-12T05:55:16;100275.60;;;15.20
66372;BMP180;53168;51.146;17.120;2022-09-12T05:57:56;100279.40;;;15.20
66372;BMP180;53168;51.146;17.120;2022-09-12T06:00:28;100278.00;;;15.20
66372;BMP180;53168;51.146;17.120;2022-09-12T06:03:03;100277.20;;;15.30
66372;BMP180;53168;51.146;17.120;2022-09-12T06:05:36;100277.80;;;15.40
66372;BMP180;53168;51.146;17.120;2022-09-12T06:08:07;100275.20;;;15.50
66372;BMP180;53168;51.146;17.120;2022-09-12T06:10:39;100277.80;;;15.50
66372;BMP180;53168;51.146;17.120;2022-09-12T06:13:13;100278.40;;;15.58
66372;BMP180;53168;51.146;17.120;2022-09-12T06:15:44;100281.20;;;15.54
66372;BMP180;53168;51.146;17.120;2022-09-12T06:18:16;100282.60;;;15.58
66372;BMP180;53168;51.146;17.120;2022-09-12T06:20:48;100283.00;;;15.56
66372;BMP180;53168;51.146;17.120;2022-09-12T06:23:19;100280.60;;;15.60
66372;BMP180;53168;51.146;17.120;2022-09-12T06:25:51;100282.20;;;15.60
66372;BMP180;53168;51.146;17.120;2022-09-12T06:28:24;100276.40;;;15.70
66372;BMP180;53168;51.146;17.120;2022-09-12T06:31:02;100274.00;;;15.70
66372;BMP180;53168;51.146;17.120;2022-09-12T06:33:37;100277.20;;;15.80
66372;BMP180;53168;51.146;17.120;2022-09-12T06:36:12;100276.60;;;15.90
66372;BMP180;53168;51.146;17.120;2022-09-12T06:38:45;100277.60;;;15.90
66372;BMP180;53168;51.146;17.120;2022-09-12T06:41:18;100275.60;;;15.96
66372;BMP180;53168;51.146;17.120;2022-09-12T06:43:50;100279.40;;;16.00
66372;BMP180;53168;51.146;17.120;2022-09-12T06:46:22;100275.00;;;16.00
66372;BMP180;53168;51.146;17.120;2022-09-12T06:48:56;100273.80;;;16.10
66372;BMP180;53168;51.146;17.120;2022-09-12T06:51:29;100282.80;;;16.20
66372;BMP180;53168;51.146;17.120;2022-09-12T06:54:01;100279.00;;;16.30
66372;BMP180;53168;51.146;17.120;2022-09-12T06:56:33;100276.60;;;16.30
66372;BMP180;53168;51.146;17.120;2022-09-12T06:59:05;100274.00;;;16.30
66372;BMP180;53168;51.146;17.120;2022-09-12T07:01:40;100277.00;;;16.30
66372;BMP180;53168;51.146;17.120;2022-09-12T07:04:12;100271.20;;;16.40
66372;BMP180;53168;51.146;17.120;2022-09-12T07:06:44;100273.40;;;16.40
66372;BMP180;53168;51.146;17.120;2022-09-12T07:09:16;100270.60;;;16.48
66372;BMP180;53168;51.146;17.120;2022-09-12T07:11:48;100276.00;;;16.52
66372;BMP180;53168;51.146;17.120;2022-09-12T07:14:20;100285.40;;;16.60
66372;BMP180;53168;51.146;17.120;2022-09-12T07:16:52;100288.20;;;16.70
66372;BMP180;53168;51.146;17.120;2022-09-12T07:19:24;100280.60;;;16.80
66372;BMP180;53168;51.146;17.120;2022-09-12T07:21:59;100283.00;;;16.90
66372;BMP180;53168;51.146;17.120;2022-09-12T07:24:33;100284.60;;;17.00
66372;BMP180;53168;51.146;17.120;2022-09-12T07:27:05;100282.00;;;17.10
66372;BMP180;53168;51.146;17.120;2022-09-12T07:29:37;100283.80;;;17.20
66372;BMP180;53168;51.146;17.120;2022-09-12T07:32:09;100285.40;;;17.38
66372;BMP180;53168;51.146;17.120;2022-09-12T07:34:42;100286.40;;;17.50
66372;BMP180;53168;51.146;17.120;2022-09-12T07:37:16;100289.40;;;17.60
66372;BMP180;53168;51.146;17.120;2022-09-12T07:39:48;100293.00;;;17.80
66372;BMP180;53168;51.146;17.120;2022-09-12T07:42:20;100298.60;;;18.00
66372;BMP180;53168;51.146;17.120;2022-09-12T07:44:52;100298.60;;;18.08
66372;BMP180;53168;51.146;17.120;2022-09-12T07:47:24;100302.40;;;18.14
66372;BMP180;53168;51.146;17.120;2022-09-12T07:49:56;100307.00;;;18.20
66372;BMP180;53168;51.146;17.120;2022-09-12T07:52:28;100307.40;;;18.30
66372;BMP180;53168;51.146;17.120;2022-09-12T07:55:00;100304.60;;;18.44
66372;BMP180;53168;51.146;17.120;2022-09-12T07:57:33;100304.60;;;18.60
66372;BMP180;53168;51.146;17.120;2022-09-12T08:00:06;100306.80;;;18.70
66372;BMP180;53168;51.146;17.120;2022-09-12T08:02:48;100306.80;;;18.82
66372;BMP180;53168;51.146;17.120;2022-09-12T08:05:21;100306.00;;;19.02
66372;BMP180;53168;51.146;17.120;2022-09-12T08:07:53;100303.00;;;19.30
66372;BMP180;53168;51.146;17.120;2022-09-12T08:10:27;100310.60;;;19.46
66372;BMP180;53168;51.146;17.120;2022-09-12T08:12:59;100311.00;;;19.50
66372;BMP180;53168;51.146;17.120;2022-09-12T08:15:32;100312.60;;;19.50
66372;BMP180;53168;51.146;17.120;2022-09-12T08:18:06;100314.00;;;19.30
66372;BMP180;53168;51.146;17.120;2022-09-12T08:20:41;100317.00;;;19.10
66372;BMP180;53168;51.146;17.120;2022-09-12T08:23:13;100317.60;;;18.92
66372;BMP180;53168;51.146;17.120;2022-09-12T08:25:59;100317.00;;;18.80
66372;BMP180;53168;51.146;17.120;2022-09-12T08:28:36;100317.80;;;18.80
66372;BMP180;53168;51.146;17.120;2022-09-12T08:31:13;100315.60;;;18.90
66372;BMP180;53168;51.146;17.120;2022-09-12T08:33:46;100308.80;;;19.10
66372;BMP180;53168;51.146;17.120;2022-09-12T08:36:20;100304.00;;;19.30
66372;BMP180;53168;51.146;17.120;2022-09-12T08:38:57;100307.20;;;19.56
66372;BMP180;53168;51.146;17.120;2022-09-12T08:41:32;100303.60;;;19.86
66372;BMP180;53168;51.146;17.120;2022-09-12T08:44:24;100310.60;;;20.00
66372;BMP180;53168;51.146;17.120;2022-09-12T08:47:18;100309.80;;;20.10
66372;BMP180;53168;51.146;17.120;2022-09-12T08:50:00;100308.20;;;20.10
66372;BMP180;53168;51.146;17.120;2022-09-12T08:52:38;100314.00;;;20.00
66372;BMP180;53168;51.146;17.120;2022-09-12T08:55:24;100306.20;;;20.00
66372;BMP180;53168;51.146;17.120;2022-09-12T08:57:57;100307.20;;;20.08
66372;BMP180;53168;51.146;17.120;2022-09-12T09:00:39;100308.40;;;20.10
66372;BMP180;53168;51.146;17.120;2022-09-12T09:03:47;100306.40;;;20.20
66372;BMP180;53168;51.146;17.120;2022-09-12T09:06:33;100307.40;;;20.30
66372;BMP180;53168;51.146;17.120;2022-09-12T09:09:13;100305.00;;;20.50
66372;BMP180;53168;51.146;17.120;2022-09-12T09:12:04;100304.60;;;20.60
66372;BMP180;53168;51.146;17.120;2022-09-12T09:15:02;100310.40;;;20.60
66372;BMP180;53168;51.146;17.120;2022-09-12T09:17:42;100306.20;;;20.70
66372;BMP180;53168;51.146;17.120;2022-09-12T09:20:21;100310.20;;;20.72
66372;BMP180;53168;51.146;17.120;2022-09-12T09:22:59;100319.00;;;20.70
66372;BMP180;53168;51.146;17.120;2022-09-12T09:25:41;100313.20;;;20.70
66372;BMP180;53168;51.146;17.120;2022-09-12T09:28:18;100320.60;;;20.60
66372;BMP180;53168;51.146;17.120;2022-09-12T09:30:52;100315.40;;;20.60
66372;BMP180;53168;51.146;17.120;2022-09-12T09:33:27;100314.40;;;20.70
66372;BMP180;53168;51.146;17.120;2022-09-12T09:36:07;100311.20;;;20.70
66372;BMP180;53168;51.146;17.120;2022-09-12T09:38:49;100312.20;;;20.80
66372;BMP180;53168;51.146;17.120;2022-09-12T09:41:29;100309.00;;;20.98
66372;BMP180;53168;51.146;17.120;2022-09-12T09:44:05;100311.20;;;21.10
66372;BMP180;53168;51.146;17.120;2022-09-12T09:46:41;100305.00;;;21.30
66372;BMP180;53168;51.146;17.120;2022-09-12T09:49:14;100306.60;;;21.40
66372;BMP180;53168;51.146;17.120;2022-09-12T09:51:47;100308.00;;;21.56
66372;BMP180;53168;51.146;17.120;2022-09-12T09:54:22;100302.80;;;21.60
66372;BMP180;53168;51.146;17.120;2022-09-12T09:56:54;100298.40;;;21.70
66372;BMP180;53168;51.146;17.120;2022-09-12T09:59:28;100294.00;;;21.70
66372;BMP180;53168;51.146;17.120;2022-09-12T10:02:07;100290.40;;;21.90
66372;BMP180;53168;51.146;17.120;2022-09-12T10:04:58;100295.60;;;22.10
66372;BMP180;53168;51.146;17.120;2022-09-12T10:07:30;100299.60;;;22.30
66372;BMP180;53168;51.146;17.120;2022-09-12T10:10:13;100304.20;;;22.40
66372;BMP180;53168;51.146;17.120;2022-09-12T10:12:46;100301.20;;;22.50
66372;BMP180;53168;51.146;17.120;2022-09-12T10:15:19;100303.80;;;22.60
66372;BMP180;53168;51.146;17.120;2022-09-12T10:17:52;100300.60;;;22.60
66372;BMP180;53168;51.146;17.120;2022-09-12T10:20:34;100305.00;;;22.60
66372;BMP180;53168;51.146;17.120;2022-09-12T10:23:26;100301.60;;;22.70
66372;BMP180;53168;51.146;17.120;2022-09-12T10:26:04;100301.20;;;22.88
66372;BMP180;53168;51.146;17.120;2022-09-12T10:28:41;100304.60;;;23.00
66372;BMP180;53168;51.146;17.120;2022-09-12T10:31:22;100297.40;;;23.10
66372;BMP180;53168;51.146;17.120;2022-09-12T10:34:03;100299.80;;;23.30
66372;BMP180;53168;51.146;17.120;2022-09-12T10:36:39;100293.60;;;23.46
66372;BMP180;53168;51.146;17.120;2022-09-12T10:39:17;100291.80;;;23.50
66372;BMP180;53168;51.146;17.120;2022-09-12T10:41:50;100290.20;;;23.48
66372;BMP180;53168;51.146;17.120;2022-09-12T10:44:27;100296.00;;;23.40
66372;BMP180;53168;51.146;17.120;2022-09-12T10:49:49;100299.20;;;23.40
66372;BMP180;53168;51.146;17.120;2022-09-12T10:52:23;100301.80;;;23.30
66372;BMP180;53168;51.146;17.120;2022-09-12T10:54:57;100298.40;;;23.20
66372;BMP180;53168;51.146;17.120;2022-09-12T10:57:53;100298.00;;;23.04
66372;BMP180;53168;51.146;17.120;2022-09-12T11:00:30;100293.20;;;22.94
66372;BMP180;53168;51.146;17.120;2022-09-12T11:03:34;100291.00;;;22.96
66372;BMP180;53168;51.146;17.120;2022-09-12T11:06:13;100290.60;;;23.10
66372;BMP180;53168;51.146;17.120;2022-09-12T11:08:59;100297.60;;;23.20
66372;BMP180;53168;51.146;17.120;2022-09-12T11:11:43;100297.20;;;23.30
66372;BMP180;53168;51.146;17.120;2022-09-12T11:14:35;100293.40;;;23.50
66372;BMP180;53168;51.146;17.120;2022-09-12T11:17:27;100296.40;;;23.84
66372;BMP180;53168;51.146;17.120;2022-09-12T11:20:15;100304.60;;;23.90
66372;BMP180;53168;51.146;17.120;2022-09-12T11:23:10;100294.80;;;23.90
66372;BMP180;53168;51.146;17.120;2022-09-12T11:25:57;100292.00;;;24.10
66372;BMP180;53168;51.146;17.120;2022-09-12T11:28:46;100297.60;;;24.20
66372;BMP180;53168;51.146;17.120;2022-09-12T11:31:48;100293.80;;;24.30
66372;BMP180;53168;51.146;17.120;2022-09-12T11:34:38;100294.00;;;24.42
66372;BMP180;53168;51.146;17.120;2022-09-12T11:37:26;100290.00;;;24.50
66372;BMP180;53168;51.146;17.120;2022-09-12T11:40:21;100293.20;;;24.50
66372;BMP180;53168;51.146;17.120;2022-09-12T11:43:00;100294.60;;;24.50
66372;BMP180;53168;51.146;17.120;2022-09-12T11:45:39;100290.00;;;24.50
66372;BMP180;53168;51.146;17.120;2022-09-12T11:48:17;100286.40;;;24.58
66372;BMP180;53168;51.146;17.120;2022-09-12T11:50:55;100284.40;;;24.60
66372;BMP180;53168;51.146;17.120;2022-09-12T11:53:32;100289.80;;;24.80
66372;BMP180;53168;51.146;17.120;2022-09-12T11:56:11;100288.40;;;24.72
66372;BMP180;53168;51.146;17.120;2022-09-12T11:58:58;100232.00;;;25.08
66372;BMP180;53168;51.146;17.120;2022-09-12T12:01:41;100093.00;;;26.84
66372;BMP180;53168;51.146;17.120;2022-09-12T12:04:26;100138.40;;;29.32
66372;BMP180;53168;51.146;17.120;2022-09-12T12:07:05;100209.60;;;29.10
66372;BMP180;53168;51.146;17.120;2022-09-12T12:09:46;100231.80;;;29.98
66372;BMP180;53168;51.146;17.120;2022-09-12T12:12:23;100235.00;;;31.34
66372;BMP180;53168;51.146;17.120;2022-09-12T12:15:00;100269.80;;;31.22
66372;BMP180;53168;51.146;17.120;2022-09-12T12:17:35;100280.60;;;31.00
66372;BMP180;53168;51.146;17.120;2022-09-12T12:20:16;100271.00;;;30.70
66372;BMP180;53168;51.146;17.120;2022-09-12T12:22:53;100276.60;;;30.60
66372;BMP180;53168;51.146;17.120;2022-09-12T12:25:39;100274.00;;;30.34
66372;BMP180;53168;51.146;17.120;2022-09-12T12:28:11;100277.60;;;30.10
66372;BMP180;53168;51.146;17.120;2022-09-12T12:31:05;100273.60;;;29.40
66372;BMP180;53168;51.146;17.120;2022-09-12T12:34:01;100279.80;;;29.38
66372;BMP180;53168;51.146;17.120;2022-09-12T12:36:39;100276.60;;;28.84
66372;BMP180;53168;51.146;17.120;2022-09-12T12:46:02;100281.00;;;27.12
66372;BMP180;53168;51.146;17.120;2022-09-12T12:48:45;100280.60;;;26.50
66372;BMP180;53168;51.146;17.120;2022-09-12T12:51:31;100280.20;;;26.08
66372;BMP180;53168;51.146;17.120;2022-09-12T12:54:24;100280.00;;;25.70
66372;BMP180;53168;51.146;17.120;2022-09-12T12:57:18;100283.80;;;25.30
66372;BMP180;53168;51.146;17.120;2022-09-12T12:59:55;100281.60;;;24.90
66372;BMP180;53168;51.146;17.120;2022-09-12T13:02:32;100287.00;;;24.64
66372;BMP180;53168;51.146;17.120;2022-09-12T13:05:20;100285.00;;;24.40
66372;BMP180;53168;51.146;17.120;2022-09-12T13:07:57;100288.60;;;24.20
66372;BMP180;53168;51.146;17.120;2022-09-12T13:10:32;100284.60;;;24.00
66372;BMP180;53168;51.146;17.120;2022-09-12T13:13:08;100288.40;;;23.90
66372;BMP180;53168;51.146;17.120;2022-09-12T13:15:51;100289.20;;;23.78
66372;BMP180;53168;51.146;17.120;2022-09-12T13:18:27;100287.80;;;23.60
66372;BMP180;53168;51.146;17.120;2022-09-12T13:21:08;100288.40;;;23.50
66372;BMP180;53168;51.146;17.120;2022-09-12T13:23:44;100286.80;;;23.50
66372;BMP180;53168;51.146;17.120;2022-09-12T13:26:23;100287.00;;;23.50
66372;BMP180;53168;51.146;17.120;2022-09-12T13:29:16;100283.20;;;23.50
66372;BMP180;53168;51.146;17.120;2022-09-12T13:31:55;100277.00;;;23.70
66372;BMP180;53168;51.146;17.120;2022-09-12T13:34:33;100276.60;;;23.94
66372;BMP180;53168;51.146;17.120;2022-09-12T13:37:30;100267.00;;;24.30
66372;BMP180;53168;51.146;17.120;2022-09-12T13:40:26;100266.20;;;24.74
66372;BMP180;53168;51.146;17.120;2022-09-12T13:43:22;100273.60;;;25.10
66372;BMP180;53168;51.146;17.120;2022-09-12T13:46:00;100264.20;;;25.40
66372;BMP180;53168;51.146;17.120;2022-09-12T13:48:33;100258.80;;;25.70
66372;BMP180;53168;51.146;17.120;2022-09-12T13:51:05;100253.20;;;26.06
66372;BMP180;53168;51.146;17.120;2022-09-12T13:53:42;100250.80;;;26.30
66372;BMP180;53168;51.146;17.120;2022-09-12T13:56:18;100253.80;;;26.50
66372;BMP180;53168;51.146;17.120;2022-09-12T13:58:54;100258.40;;;26.50
66372;BMP180;53168;51.146;17.120;2022-09-12T14:01:38;100256.00;;;26.40
66372;BMP180;53168;51.146;17.120;2022-09-12T14:04:17;100259.80;;;26.28
66372;BMP180;53168;51.146;17.120;2022-09-12T14:07:12;100253.00;;;25.90
66372;BMP180;53168;51.146;17.120;2022-09-12T14:09:52;100253.40;;;25.52
66372;BMP180;53168;51.146;17.120;2022-09-12T14:12:28;100257.20;;;25.14
66372;BMP180;53168;51.146;17.120;2022-09-12T14:15:02;100254.80;;;24.70
66372;BMP180;53168;51.146;17.120;2022-09-12T14:17:36;100254.00;;;24.40
66372;BMP180;53168;51.146;17.120;2022-09-12T14:20:14;100257.60;;;24.00
66372;BMP180;53168;51.146;17.120;2022-09-12T14:22:48;100256.80;;;23.70
66372;BMP180;53168;51.146;17.120;2022-09-12T14:25:22;100257.00;;;23.60
66372;BMP180;53168;51.146;17.120;2022-09-12T14:28:03;100260.20;;;23.50
66372;BMP180;53168;51.146;17.120;2022-09-12T14:30:36;100251.20;;;23.40
66372;BMP180;53168;51.146;17.120;2022-09-12T14:33:20;100247.40;;;23.20
66372;BMP180;53168;51.146;17.120;2022-09-12T14:36:05;100252.60;;;22.94
66372;BMP180;53168;51.146;17.120;2022-09-12T14:38:41;100243.80;;;22.64
66372;BMP180;53168;51.146;17.120;2022-09-12T14:41:22;100249.60;;;22.42
66372;BMP180;53168;51.146;17.120;2022-09-12T14:43:57;100254.00;;;22.30
66372;BMP180;53168;51.146;17.120;2022-09-12T14:46:32;100254.20;;;22.20
66372;BMP180;53168;51.146;17.120;2022-09-12T14:49:08;100254.80;;;22.10
66372;BMP180;53168;51.146;17.120;2022-09-12T14:51:52;100250.60;;;21.90
66372;BMP180;53168;51.146;17.120;2022-09-12T14:54:41;100252.20;;;21.80